N76SAM VGHS-VECC
Flight info
| Callsign | N76SAM |
|---|---|
| Flight time | N/A |
| Altitude | 16000 |
| Route | IKOGU1C IKOGU A462 BEMAK BEMAK2A |
| Aircraft | A20N/M-SDE2E3FGHIRWXY/LB1 |
Departure
| Time | 2026-05-07 05:17 |
|---|---|
| Airport | Hazrat Shahjalal International Airport (VGHS) |
Arrival
| Time | N/A |
|---|---|
| Airport | Netaji Subhash Chandra Bose International Airport (VECC) |
| Time | Latitude | Longitude | Altitude | Speed | Heading |
|---|---|---|---|---|---|
| 2026-05-07 05:16 | 23.78790 | 90.43916 | 4952 ft | 254 kts | 169° |
| 2026-05-07 05:17 | 23.76939 | 90.43818 | 5451 ft | 270 kts | 205° |
| 2026-05-07 05:17 | 23.75505 | 90.42574 | 5788 ft | 268 kts | 234° |
| 2026-05-07 05:17 | 23.74472 | 90.40887 | 5907 ft | 266 kts | 239° |
| 2026-05-07 05:17 | 23.73527 | 90.39186 | 5961 ft | 267 kts | 240° |
| 2026-05-07 05:18 | 23.72564 | 90.37458 | 5981 ft | 266 kts | 239° |
| 2026-05-07 05:18 | 23.71555 | 90.35773 | 5992 ft | 265 kts | 237° |
| 2026-05-07 05:18 | 23.70508 | 90.34111 | 5995 ft | 266 kts | 236° |
| 2026-05-07 05:18 | 23.69439 | 90.32464 | 5999 ft | 265 kts | 236° |
| 2026-05-07 05:19 | 23.68361 | 90.30826 | 5999 ft | 265 kts | 235° |
| 2026-05-07 05:19 | 23.67277 | 90.29193 | 5996 ft | 266 kts | 235° |
| 2026-05-07 05:19 | 23.66192 | 90.27562 | 5997 ft | 265 kts | 235° |
| 2026-05-07 05:19 | 23.65108 | 90.25933 | 6002 ft | 266 kts | 235° |
| 2026-05-07 05:20 | 23.64024 | 90.24300 | 6001 ft | 265 kts | 236° |
| 2026-05-07 05:20 | 23.63324 | 90.23209 | 6000 ft | 265 kts | 237° |
| 2026-05-07 05:21 | 23.59991 | 90.17472 | 6008 ft | 265 kts | 240° |
| 2026-05-07 05:21 | 23.58124 | 90.14034 | 6004 ft | 265 kts | 240° |
| 2026-05-07 05:21 | 23.57192 | 90.12300 | 6039 ft | 264 kts | 240° |
| 2026-05-07 05:22 | 23.56258 | 90.10563 | 6350 ft | 266 kts | 240° |
| 2026-05-07 05:22 | 23.55318 | 90.08816 | 7071 ft | 267 kts | 240° |
| 2026-05-07 05:22 | 23.54693 | 90.07658 | 7703 ft | 268 kts | 240° |
| 2026-05-07 05:22 | 23.53740 | 90.05896 | 8823 ft | 271 kts | 240° |
| 2026-05-07 05:23 | 23.52774 | 90.04112 | 10037 ft | 277 kts | 240° |
| 2026-05-07 05:23 | 23.51770 | 90.02258 | 11036 ft | 290 kts | 240° |
| 2026-05-07 05:23 | 23.50730 | 90.00339 | 12152 ft | 296 kts | 240° |
| 2026-05-07 05:23 | 23.49669 | 89.98383 | 13267 ft | 302 kts | 240° |
| 2026-05-07 05:24 | 23.48588 | 89.96395 | 14327 ft | 308 kts | 240° |
| 2026-05-07 05:24 | 23.47491 | 89.94378 | 15148 ft | 309 kts | 240° |
| 2026-05-07 05:24 | 23.46382 | 89.92342 | 15528 ft | 315 kts | 240° |
| 2026-05-07 05:24 | 23.45265 | 89.90291 | 15794 ft | 321 kts | 240° |
| 2026-05-07 05:25 | 23.44124 | 89.88198 | 15910 ft | 321 kts | 240° |
| 2026-05-07 05:25 | 23.43116 | 89.86028 | 15963 ft | 320 kts | 247° |
| 2026-05-07 05:25 | 23.42294 | 89.83770 | 15986 ft | 329 kts | 251° |
| 2026-05-07 05:25 | 23.41528 | 89.81274 | 15995 ft | 365 kts | 253° |
| 2026-05-07 05:26 | 23.40781 | 89.78490 | 15998 ft | 399 kts | 255° |
| 2026-05-07 05:26 | 23.40047 | 89.75458 | 15998 ft | 427 kts | 256° |
| 2026-05-07 05:26 | 23.39336 | 89.72311 | 15996 ft | 428 kts | 257° |
| 2026-05-07 05:26 | 23.38657 | 89.69165 | 15997 ft | 427 kts | 257° |
| 2026-05-07 05:27 | 23.37617 | 89.66134 | 15999 ft | 429 kts | 245° |
| 2026-05-07 05:27 | 23.36230 | 89.63262 | 15996 ft | 429 kts | 242° |
| 2026-05-07 05:27 | 23.34762 | 89.60490 | 15996 ft | 428 kts | 240° |
| 2026-05-07 05:27 | 23.33222 | 89.57707 | 15997 ft | 429 kts | 239° |
| 2026-05-07 05:28 | 23.31656 | 89.54950 | 15997 ft | 429 kts | 239° |
| 2026-05-07 05:28 | 23.30068 | 89.52199 | 15998 ft | 429 kts | 238° |
| 2026-05-07 05:28 | 23.28471 | 89.49462 | 15998 ft | 428 kts | 238° |
| 2026-05-07 05:28 | 23.26865 | 89.46729 | 15998 ft | 429 kts | 238° |
| 2026-05-07 05:29 | 23.25249 | 89.43996 | 15999 ft | 429 kts | 238° |
| 2026-05-07 05:29 | 23.23632 | 89.41270 | 16000 ft | 429 kts | 238° |
| 2026-05-07 05:29 | 23.22015 | 89.38552 | 16001 ft | 428 kts | 238° |
| 2026-05-07 05:29 | 23.20390 | 89.35828 | 16000 ft | 429 kts | 238° |
| 2026-05-07 05:30 | 23.18766 | 89.33110 | 15998 ft | 429 kts | 238° |
| 2026-05-07 05:30 | 23.17138 | 89.30388 | 15998 ft | 429 kts | 237° |
| 2026-05-07 05:30 | 23.15512 | 89.27676 | 16001 ft | 428 kts | 237° |
| 2026-05-07 05:30 | 23.13885 | 89.24964 | 16002 ft | 429 kts | 237° |
| 2026-05-07 05:31 | 23.12253 | 89.22246 | 15998 ft | 429 kts | 237° |
| 2026-05-07 05:31 | 23.10644 | 89.19568 | 15998 ft | 429 kts | 237° |
| 2026-05-07 05:31 | 23.09015 | 89.16860 | 15999 ft | 428 kts | 237° |
| 2026-05-07 05:31 | 23.07384 | 89.14152 | 15999 ft | 429 kts | 237° |
| 2026-05-07 05:32 | 23.05750 | 89.11438 | 15999 ft | 429 kts | 237° |
| 2026-05-07 05:32 | 23.04114 | 89.08724 | 16000 ft | 429 kts | 237° |
| 2026-05-07 05:32 | 23.02478 | 89.06012 | 16002 ft | 429 kts | 237° |
| 2026-05-07 05:32 | 23.00888 | 89.03377 | 16002 ft | 398 kts | 237° |
| 2026-05-07 05:33 | 22.99438 | 89.00979 | 16000 ft | 364 kts | 237° |
| 2026-05-07 05:33 | 22.98103 | 88.98773 | 15996 ft | 335 kts | 237° |
| 2026-05-07 05:33 | 22.96866 | 88.96727 | 15997 ft | 318 kts | 238° |
| 2026-05-07 05:33 | 22.95653 | 88.94716 | 16000 ft | 319 kts | 238° |
| 2026-05-07 05:34 | 22.94431 | 88.92702 | 16000 ft | 319 kts | 237° |
| 2026-05-07 05:34 | 22.93193 | 88.90705 | 15999 ft | 318 kts | 237° |
| 2026-05-07 05:34 | 22.91940 | 88.88721 | 16000 ft | 319 kts | 236° |
| 2026-05-07 05:34 | 22.90672 | 88.86740 | 15999 ft | 319 kts | 236° |
| 2026-05-07 05:35 | 22.89400 | 88.84770 | 15998 ft | 319 kts | 236° |
| 2026-05-07 05:35 | 22.88123 | 88.82802 | 15999 ft | 319 kts | 236° |
| 2026-05-07 05:35 | 22.86843 | 88.80838 | 15999 ft | 319 kts | 236° |
| 2026-05-07 05:35 | 22.85562 | 88.78871 | 16002 ft | 319 kts | 237° |
| 2026-05-07 05:36 | 22.84667 | 88.76695 | 16011 ft | 317 kts | 256° |
| 2026-05-07 05:36 | 22.84261 | 88.74383 | 16003 ft | 302 kts | 263° |
| 2026-05-07 05:36 | 22.84074 | 88.72192 | 15999 ft | 281 kts | 267° |
| 2026-05-07 05:36 | 22.84021 | 88.70174 | 15998 ft | 263 kts | 270° |
| 2026-05-07 05:37 | 22.84059 | 88.68226 | 15999 ft | 257 kts | 272° |
| 2026-05-07 05:37 | 22.84171 | 88.66286 | 16001 ft | 259 kts | 275° |
| 2026-05-07 05:37 | 22.84341 | 88.64339 | 16001 ft | 258 kts | 276° |
| 2026-05-07 05:37 | 22.84550 | 88.62409 | 16000 ft | 257 kts | 278° |
| 2026-05-07 05:38 | 22.85158 | 88.60609 | 16040 ft | 260 kts | 311° |
| 2026-05-07 05:38 | 22.86633 | 88.59585 | 16078 ft | 255 kts | 349° |
| 2026-05-07 05:38 | 22.88369 | 88.59557 | 16080 ft | 242 kts | 4° |
| 2026-05-07 05:38 | 22.89952 | 88.59778 | 16070 ft | 229 kts | 6° |
| 2026-05-07 05:39 | 22.91542 | 88.60057 | 15728 ft | 233 kts | 7° |
| 2026-05-07 05:39 | 22.93131 | 88.60098 | 15261 ft | 227 kts | 340° |
| 2026-05-07 05:39 | 22.94334 | 88.59101 | 14692 ft | 219 kts | 298° |
| 2026-05-07 05:39 | 22.94543 | 88.57521 | 14095 ft | 216 kts | 255° |
| 2026-05-07 05:40 | 22.93661 | 88.56240 | 13517 ft | 219 kts | 212° |
| 2026-05-07 05:40 | 22.92183 | 88.55856 | 12959 ft | 221 kts | 187° |
| 2026-05-07 05:40 | 22.90657 | 88.55747 | 12390 ft | 219 kts | 185° |
| 2026-05-07 05:40 | 22.89137 | 88.55661 | 11834 ft | 217 kts | 185° |
| 2026-05-07 05:41 | 22.87642 | 88.55523 | 11278 ft | 214 kts | 189° |
| 2026-05-07 05:41 | 22.86184 | 88.55246 | 10735 ft | 212 kts | 195° |
| 2026-05-07 05:41 | 22.84765 | 88.54832 | 10233 ft | 212 kts | 200° |
| 2026-05-07 05:41 | 22.83405 | 88.54320 | 9910 ft | 207 kts | 203° |
| 2026-05-07 05:42 | 22.82083 | 88.53739 | 9452 ft | 202 kts | 206° |
| 2026-05-07 05:42 | 22.80802 | 88.53118 | 8753 ft | 200 kts | 207° |
| 2026-05-07 05:42 | 22.79560 | 88.52477 | 8121 ft | 195 kts | 208° |
| 2026-05-07 05:42 | 22.78354 | 88.51830 | 7507 ft | 191 kts | 209° |
| 2026-05-07 05:43 | 22.77175 | 88.51183 | 6924 ft | 188 kts | 210° |
| 2026-05-07 05:43 | 22.76019 | 88.50542 | 6304 ft | 185 kts | 210° |
| 2026-05-07 05:43 | 22.74880 | 88.49908 | 5680 ft | 183 kts | 210° |
| 2026-05-07 05:43 | 22.73756 | 88.49270 | 5077 ft | 181 kts | 210° |
| 2026-05-07 05:44 | 22.72643 | 88.48647 | 4484 ft | 179 kts | 210° |
| 2026-05-07 05:44 | 22.71548 | 88.48045 | 3897 ft | 178 kts | 210° |
| 2026-05-07 05:44 | 22.70448 | 88.47441 | 3322 ft | 176 kts | 210° |
| 2026-05-07 05:44 | 22.69360 | 88.46843 | 2743 ft | 174 kts | 210° |
| 2026-05-07 05:45 | 22.68307 | 88.46267 | 2350 ft | 158 kts | 210° |
| 2026-05-07 05:45 | 22.67410 | 88.45778 | 2155 ft | 131 kts | 210° |